Terminal Aerodrome Forecast
Issued by NWS Atlanta, GA

Home | Current Version | Previous Version | Text Only | Print | Product List | Glossary On
Versions: 1 2 3 4 5 6 7 8 9 10 11 12 13 14 15 16 17 18 19 20 21 22 23 24 25 26 27 28 29 30 31 32 33 34 35 36 37 38 39
026
FTUS42 KFFC 231915 AAA
TAFAHN
TAF AMD
KAHN 231915Z 2319/2418 23006KT P6SM VCSH SCT060
      TEMPO 2319/2323 VRB15G25KT 4SM TSRA BKN035CB
     FM240100 22003KT P6SM FEW070 SCT120
     FM241500 25005KT P6SM SCT035
     FM241700 23006KT P6SM VCSH SCT045=

USA.gov is the U.S. government's official web portal to all federal, state and local government web resources and services.